createdAt,value
2023-03-08T00:04:41.846Z,0
2023-03-08T00:11:04.740Z,0
2023-03-08T00:17:24.774Z,0
2023-03-08T00:23:47.843Z,0
2023-03-08T00:30:07.763Z,0
2023-03-08T00:36:30.811Z,0
2023-03-08T00:42:50.743Z,0
2023-03-08T00:49:13.850Z,0
2023-03-08T00:55:33.796Z,0
2023-03-08T01:01:56.857Z,0
2023-03-08T01:08:16.826Z,0
2023-03-08T01:14:39.776Z,0
2023-03-08T01:20:59.747Z,0
2023-03-08T01:27:22.782Z,0
2023-03-08T01:33:42.809Z,0
2023-03-08T01:40:05.914Z,0
2023-03-08T01:46:25.812Z,0
2023-03-08T01:52:48.924Z,0
2023-03-08T01:59:08.877Z,0
2023-03-08T02:05:31.782Z,0
2023-03-08T02:11:51.745Z,0
2023-03-08T02:18:14.887Z,0
2023-03-08T02:24:34.823Z,0
2023-03-08T02:30:57.962Z,0
2023-03-08T02:37:17.805Z,0
2023-03-08T02:43:40.791Z,0
2023-03-08T02:50:00.827Z,0
2023-03-08T02:56:23.853Z,0
2023-03-08T03:02:43.805Z,0
2023-03-08T03:09:06.879Z,0
2023-03-08T03:15:26.801Z,0
2023-03-08T03:21:49.945Z,0
2023-03-08T03:28:09.774Z,0
2023-03-08T03:34:32.853Z,0
2023-03-08T03:40:52.758Z,0
2023-03-08T03:47:15.863Z,0
2023-03-08T03:53:35.842Z,0
2023-03-08T03:59:58.854Z,0
2023-03-08T04:06:18.844Z,0
2023-03-08T04:22:47.675Z,0
2023-03-08T04:29:07.767Z,0
2023-03-08T04:35:30.997Z,0
2023-03-08T04:41:50.847Z,0
2023-03-08T04:48:13.810Z,0
2023-03-08T04:54:33.796Z,0
2023-03-08T05:00:56.861Z,0
2023-03-08T05:07:16.806Z,0
2023-03-08T05:13:39.843Z,0
2023-03-08T05:19:59.842Z,0
2023-03-08T05:26:22.785Z,0
2023-03-08T05:32:42.848Z,0
2023-03-08T05:39:05.866Z,0
2023-03-08T05:45:25.878Z,0
2023-03-08T05:51:48.807Z,0
2023-03-08T05:58:08.850Z,0
2023-03-08T06:04:31.787Z,0
2023-03-08T06:10:51.847Z,0
2023-03-08T06:17:14.877Z,0
2023-03-08T06:23:34.906Z,0
2023-03-08T06:29:57.876Z,0
2023-03-08T06:36:17.875Z,0
2023-03-08T06:42:41.957Z,0
2023-03-08T06:49:00.733Z,0
2023-03-08T06:55:23.842Z,0
2023-03-08T07:01:43.944Z,0
2023-03-08T07:08:06.808Z,0
2023-03-08T07:14:26.784Z,5.62
2023-03-08T07:20:49.768Z,5.62
2023-03-08T07:27:09.779Z,5.62
2023-03-08T07:33:32.786Z,5.62
2023-03-08T07:39:52.754Z,5.62
2023-03-08T07:46:15.826Z,5.62
2023-03-08T07:52:35.783Z,0
2023-03-08T07:58:58.809Z,0
2023-03-08T08:05:18.762Z,5.62
2023-03-08T08:11:41.883Z,0
2023-03-08T08:18:01.858Z,0
2023-03-08T08:24:24.854Z,5.62
2023-03-08T08:30:44.846Z,11.25
2023-03-08T08:37:07.903Z,11.25
2023-03-08T08:43:27.817Z,11.25
2023-03-08T08:49:50.905Z,11.25
2023-03-08T08:56:20.292Z,11.25
2023-03-08T09:02:33.993Z,16.88
2023-03-08T09:08:53.903Z,22.5
2023-03-08T09:25:04.689Z,16.88
2023-03-08T09:31:24.789Z,16.88
2023-03-08T09:37:47.724Z,16.88
2023-03-08T09:44:07.796Z,16.88
2023-03-08T09:50:32.294Z,16.88
2023-03-08T09:56:50.787Z,16.88
2023-03-08T10:03:13.924Z,22.5
2023-03-08T10:09:33.755Z,33.75
2023-03-08T10:15:56.792Z,33.75
2023-03-08T10:22:16.966Z,22.5
2023-03-08T10:28:39.823Z,22.5
2023-03-08T10:34:59.954Z,22.5
2023-03-08T10:41:25.292Z,33.75
2023-03-08T10:47:44.759Z,28.12
2023-03-08T10:54:07.831Z,28.12
2023-03-08T11:00:27.846Z,28.12
2023-03-08T11:06:50.809Z,28.12
2023-03-08T11:13:10.882Z,28.12
2023-03-08T11:19:33.890Z,39.38
2023-03-08T11:25:53.927Z,45
2023-03-08T11:32:16.946Z,45
2023-03-08T11:38:36.988Z,50.62
2023-03-08T11:44:59.753Z,67.5
2023-03-08T11:51:19.872Z,67.5
2023-03-08T11:57:42.777Z,73.12
2023-03-08T12:04:04.307Z,90
2023-03-08T12:10:26.306Z,45
2023-03-08T12:16:45.883Z,56.25
2023-03-08T12:23:08.971Z,61.88
2023-03-08T12:29:29.850Z,45
2023-03-08T12:35:52.970Z,50.62
2023-03-08T12:42:12.789Z,50.62
2023-03-08T12:48:35.933Z,50.62
2023-03-08T12:54:55.842Z,39.38
2023-03-08T13:01:18.871Z,33.75
2023-03-08T13:07:38.912Z,61.88
2023-03-08T13:14:01.865Z,22.5
2023-03-08T13:20:21.989Z,33.75
2023-03-08T13:26:50.112Z,50.62
2023-03-08T13:33:04.885Z,56.25
2023-03-08T13:39:27.816Z,67.5
2023-03-08T13:45:47.903Z,61.88
2023-03-08T13:52:10.881Z,33.75
2023-03-08T13:58:30.884Z,33.75
2023-03-08T14:04:53.880Z,33.75
2023-03-08T14:11:13.866Z,28.12
2023-03-08T14:35:03.780Z,22.5
2023-03-08T14:41:26.755Z,16.88
2023-03-08T14:47:46.765Z,11.25
2023-03-08T14:54:09.773Z,16.88
2023-03-08T15:00:29.849Z,11.25
2023-03-08T15:06:52.853Z,11.25
2023-03-08T15:13:12.799Z,5.62
2023-03-08T15:19:35.862Z,5.62
2023-03-08T15:25:55.748Z,5.62
2023-03-08T15:32:18.796Z,5.62
2023-03-08T15:38:38.865Z,5.62
2023-03-08T15:45:01.859Z,11.25
2023-03-08T15:51:21.766Z,11.25
2023-03-08T15:57:44.827Z,5.62
2023-03-08T16:04:04.741Z,0
2023-03-08T16:10:27.782Z,5.62
2023-03-08T16:16:47.859Z,0
2023-03-08T16:23:10.783Z,0
2023-03-08T16:29:30.813Z,0
2023-03-08T16:35:53.852Z,0
2023-03-08T16:42:13.770Z,5.62
2023-03-08T16:48:36.839Z,5.62
2023-03-08T16:54:56.848Z,5.62
2023-03-08T17:01:19.840Z,5.62
2023-03-08T17:07:39.827Z,0
2023-03-08T17:14:02.820Z,0
2023-03-08T17:20:22.845Z,0
2023-03-08T17:26:45.908Z,0
2023-03-08T17:33:05.807Z,0
2023-03-08T17:39:28.933Z,0
2023-03-08T17:45:48.876Z,0
2023-03-08T17:52:11.760Z,0
2023-03-08T17:58:31.879Z,0
2023-03-08T18:04:55.021Z,0
2023-03-08T18:11:14.858Z,0
2023-03-08T18:17:37.962Z,0
2023-03-08T18:23:57.836Z,0
2023-03-08T18:30:20.816Z,0
2023-03-08T18:36:40.878Z,0
2023-03-08T18:43:03.816Z,0
2023-03-08T18:49:24.044Z,0
2023-03-08T18:55:46.791Z,0
2023-03-08T19:02:06.856Z,0
2023-03-08T19:08:29.826Z,0
2023-03-08T19:14:49.887Z,0
2023-03-08T19:38:49.702Z,0
2023-03-08T19:45:12.775Z,0
2023-03-08T19:51:32.821Z,0
2023-03-08T19:57:55.894Z,0
2023-03-08T20:04:15.814Z,0
2023-03-08T20:10:38.896Z,0
2023-03-08T20:16:58.937Z,0
2023-03-08T20:23:21.819Z,0
2023-03-08T20:29:41.789Z,0
2023-03-08T20:36:04.850Z,0
2023-03-08T20:42:24.882Z,0
2023-03-08T20:48:47.877Z,0
2023-03-08T20:55:07.766Z,0
2023-03-08T21:01:30.998Z,0
2023-03-08T21:07:50.941Z,0
2023-03-08T21:14:13.793Z,0
2023-03-08T21:20:33.759Z,0
2023-03-08T21:26:56.816Z,0
2023-03-08T21:33:16.820Z,0
2023-03-08T21:39:39.980Z,0
2023-03-08T21:45:59.789Z,0
2023-03-08T21:52:22.825Z,0
2023-03-08T21:58:42.887Z,0
2023-03-08T22:05:06.069Z,0
2023-03-08T22:11:25.844Z,0
2023-03-08T22:17:48.874Z,0
2023-03-08T22:24:08.745Z,0
2023-03-08T22:30:31.870Z,0
2023-03-08T22:36:51.847Z,0
2023-03-08T22:43:14.806Z,0
2023-03-08T22:49:34.879Z,0
2023-03-08T22:55:57.764Z,0
2023-03-08T23:20:12.786Z,0
2023-03-08T23:26:32.745Z,0
2023-03-08T23:32:55.842Z,0
2023-03-08T23:39:15.803Z,0
2023-03-08T23:45:38.897Z,0
2023-03-08T23:51:58.848Z,0
2023-03-08T23:58:21.840Z,0
